Terminal Aerodrome Forecast
Issued by NWS

Home | Current Version | Previous Version | Text Only | Print | Product List | Glossary On
Versions: 1 2 3 4 5 6 7 8 9 10 11 12 13 14 15 16 17 18 19 20 21 22 23 24 25
000
FTUS43 KICT 210213 AAA
TAFCNU
TAF AMD
KCNU 210213Z 2102/2124 35011KT P6SM BKN025
     FM210300 04006KT P6SM SCT007 BKN015
      TEMPO 2103/2107 VRB05KT P6SM SCT004 BKN007
     FM210700 02004KT P6SM SCT015 BKN025
     FM211500 04007KT P6SM FEW025 SCT050=

USA.gov is the U.S. government's official web portal to all federal, state and local government web resources and services.